Terminal Aerodrome Forecast
Issued by NWS

Home | Current Version | Previous Version | Text Only | Print | Product List | Glossary On
Versions: 1 2 3 4 5 6 7 8 9 10 11 12 13 14
000
FTUS44 KJAN 252340
TAFGTR
TAF
KGTR 252340Z 2600/2624 13003KT P6SM SCT050
     FM261000 00000KT 4SM BR SKC
     FM261400 09004KT P6SM SCT035
     FM261800 09005KT P6SM VCTS SCT040CB BKN060=

USA.gov is the U.S. government's official web portal to all federal, state and local government web resources and services.